sensor_id;sensor_type;location;lat;lon;timestamp;temperature;humidity
20915;DHT22;10617;52.032;5.298;2023-06-14T00:02:47;22.40;45.00
20915;DHT22;10617;52.032;5.298;2023-06-14T00:06:49;22.30;45.00
20915;DHT22;10617;52.032;5.298;2023-06-14T00:10:52;22.30;45.30
20915;DHT22;10617;52.032;5.298;2023-06-14T00:14:53;22.20;45.00
20915;DHT22;10617;52.032;5.298;2023-06-14T00:18:55;22.10;45.10
20915;DHT22;10617;52.032;5.298;2023-06-14T00:22:57;22.10;45.10
20915;DHT22;10617;52.032;5.298;2023-06-14T00:26:59;22.10;45.30
20915;DHT22;10617;52.032;5.298;2023-06-14T00:31:01;22.00;45.30
20915;DHT22;10617;52.032;5.298;2023-06-14T00:35:02;22.00;45.50
20915;DHT22;10617;52.032;5.298;2023-06-14T00:39:04;22.00;45.50
20915;DHT22;10617;52.032;5.298;2023-06-14T00:43:06;21.90;45.40
20915;DHT22;10617;52.032;5.298;2023-06-14T00:47:07;21.90;45.70
20915;DHT22;10617;52.032;5.298;2023-06-14T00:51:09;21.80;45.60
20915;DHT22;10617;52.032;5.298;2023-06-14T00:55:11;21.80;45.60
20915;DHT22;10617;52.032;5.298;2023-06-14T00:59:13;21.70;46.50
20915;DHT22;10617;52.032;5.298;2023-06-14T01:03:14;21.70;45.70
20915;DHT22;10617;52.032;5.298;2023-06-14T01:11:57;21.60;45.80
20915;DHT22;10617;52.032;5.298;2023-06-14T01:16:01;21.60;46.00
20915;DHT22;10617;52.032;5.298;2023-06-14T01:20:03;21.50;46.00
20915;DHT22;10617;52.032;5.298;2023-06-14T01:24:08;21.50;46.00
20915;DHT22;10617;52.032;5.298;2023-06-14T01:28:10;21.40;46.10
20915;DHT22;10617;52.032;5.298;2023-06-14T01:32:14;21.30;45.90
20915;DHT22;10617;52.032;5.298;2023-06-14T01:36:19;21.30;46.00
20915;DHT22;10617;52.032;5.298;2023-06-14T01:40:21;21.20;46.20
20915;DHT22;10617;52.032;5.298;2023-06-14T01:44:24;21.20;46.00
20915;DHT22;10617;52.032;5.298;2023-06-14T01:48:26;21.10;46.30
20915;DHT22;10617;52.032;5.298;2023-06-14T01:52:28;21.00;46.20
20915;DHT22;10617;52.032;5.298;2023-06-14T01:56:29;21.00;46.20
20915;DHT22;10617;52.032;5.298;2023-06-14T02:00:32;21.00;46.40
20915;DHT22;10617;52.032;5.298;2023-06-14T02:04:33;20.90;46.30
20915;DHT22;10617;52.032;5.298;2023-06-14T02:08:35;20.80;46.30
20915;DHT22;10617;52.032;5.298;2023-06-14T02:12:37;20.80;46.40
20915;DHT22;10617;52.032;5.298;2023-06-14T02:16:39;20.70;46.30
20915;DHT22;10617;52.032;5.298;2023-06-14T02:20:40;20.70;46.60
20915;DHT22;10617;52.032;5.298;2023-06-14T02:24:42;20.60;46.50
20915;DHT22;10617;52.032;5.298;2023-06-14T02:28:44;20.60;46.60
20915;DHT22;10617;52.032;5.298;2023-06-14T02:32:46;20.50;46.50
20915;DHT22;10617;52.032;5.298;2023-06-14T02:36:49;20.40;46.50
20915;DHT22;10617;52.032;5.298;2023-06-14T02:40:51;20.40;46.70
20915;DHT22;10617;52.032;5.298;2023-06-14T02:44:53;20.40;46.70
20915;DHT22;10617;52.032;5.298;2023-06-14T02:48:55;20.30;46.90
20915;DHT22;10617;52.032;5.298;2023-06-14T02:52:56;20.30;46.70
20915;DHT22;10617;52.032;5.298;2023-06-14T02:56:58;20.20;46.80
20915;DHT22;10617;52.032;5.298;2023-06-14T03:01:00;20.20;46.90
20915;DHT22;10617;52.032;5.298;2023-06-14T03:05:04;20.10;46.90
20915;DHT22;10617;52.032;5.298;2023-06-14T03:09:07;20.00;46.90
20915;DHT22;10617;52.032;5.298;2023-06-14T03:13:10;19.90;47.00
20915;DHT22;10617;52.032;5.298;2023-06-14T03:17:12;19.90;47.00
20915;DHT22;10617;52.032;5.298;2023-06-14T03:21:15;19.90;47.10
20915;DHT22;10617;52.032;5.298;2023-06-14T03:25:17;19.80;47.00
20915;DHT22;10617;52.032;5.298;2023-06-14T03:29:20;19.70;46.90
20915;DHT22;10617;52.032;5.298;2023-06-14T03:33:22;19.60;47.10
20915;DHT22;10617;52.032;5.298;2023-06-14T03:37:24;19.60;47.10
20915;DHT22;10617;52.032;5.298;2023-06-14T03:41:25;19.60;47.30
20915;DHT22;10617;52.032;5.298;2023-06-14T03:45:27;19.50;47.30
20915;DHT22;10617;52.032;5.298;2023-06-14T03:49:29;19.50;47.40
20915;DHT22;10617;52.032;5.298;2023-06-14T03:53:31;19.50;47.50
20915;DHT22;10617;52.032;5.298;2023-06-14T03:57:33;19.50;47.60
20915;DHT22;10617;52.032;5.298;2023-06-14T04:01:35;19.50;47.70
20915;DHT22;10617;52.032;5.298;2023-06-14T04:05:36;19.50;47.70
20915;DHT22;10617;52.032;5.298;2023-06-14T04:09:39;19.50;48.10
20915;DHT22;10617;52.032;5.298;2023-06-14T04:13:41;19.50;47.90
20915;DHT22;10617;52.032;5.298;2023-06-14T04:17:42;19.50;48.00
20915;DHT22;10617;52.032;5.298;2023-06-14T04:21:44;19.50;48.30
20915;DHT22;10617;52.032;5.298;2023-06-14T04:25:46;19.50;48.30
20915;DHT22;10617;52.032;5.298;2023-06-14T04:29:48;19.60;48.50
20915;DHT22;10617;52.032;5.298;2023-06-14T04:33:51;19.60;48.60
20915;DHT22;10617;52.032;5.298;2023-06-14T04:37:54;19.60;48.80
20915;DHT22;10617;52.032;5.298;2023-06-14T04:41:56;19.60;48.80
20915;DHT22;10617;52.032;5.298;2023-06-14T04:45:58;19.60;48.80
20915;DHT22;10617;52.032;5.298;2023-06-14T04:50:00;19.70;49.00
20915;DHT22;10617;52.032;5.298;2023-06-14T04:54:02;19.70;49.20
20915;DHT22;10617;52.032;5.298;2023-06-14T04:58:04;19.70;49.40
20915;DHT22;10617;52.032;5.298;2023-06-14T05:02:06;19.80;49.50
20915;DHT22;10617;52.032;5.298;2023-06-14T05:06:08;19.80;49.40
20915;DHT22;10617;52.032;5.298;2023-06-14T05:10:10;19.90;49.70
20915;DHT22;10617;52.032;5.298;2023-06-14T05:14:12;19.90;49.90
20915;DHT22;10617;52.032;5.298;2023-06-14T05:18:13;19.90;50.00
20915;DHT22;10617;52.032;5.298;2023-06-14T05:22:16;20.00;50.30
20915;DHT22;10617;52.032;5.298;2023-06-14T05:26:18;20.00;50.20
20915;DHT22;10617;52.032;5.298;2023-06-14T05:30:20;20.10;50.50
20915;DHT22;10617;52.032;5.298;2023-06-14T05:34:22;20.10;50.70
20915;DHT22;10617;52.032;5.298;2023-06-14T05:38:23;20.20;51.10
20915;DHT22;10617;52.032;5.298;2023-06-14T05:42:25;20.20;50.90
20915;DHT22;10617;52.032;5.298;2023-06-14T05:46:27;20.30;51.10
20915;DHT22;10617;52.032;5.298;2023-06-14T05:50:30;20.40;51.30
20915;DHT22;10617;52.032;5.298;2023-06-14T05:54:31;20.40;51.40
20915;DHT22;10617;52.032;5.298;2023-06-14T05:58:33;20.50;51.30
20915;DHT22;10617;52.032;5.298;2023-06-14T06:02:35;20.50;51.60
20915;DHT22;10617;52.032;5.298;2023-06-14T06:06:36;20.60;51.90
20915;DHT22;10617;52.032;5.298;2023-06-14T06:10:38;20.60;52.00
20915;DHT22;10617;52.032;5.298;2023-06-14T06:14:40;20.70;52.00
20915;DHT22;10617;52.032;5.298;2023-06-14T06:18:41;20.80;52.30
20915;DHT22;10617;52.032;5.298;2023-06-14T06:22:45;20.90;52.50
20915;DHT22;10617;52.032;5.298;2023-06-14T06:26:46;20.90;52.40
20915;DHT22;10617;52.032;5.298;2023-06-14T06:30:48;21.10;53.10
20915;DHT22;10617;52.032;5.298;2023-06-14T06:34:50;21.20;53.00
20915;DHT22;10617;52.032;5.298;2023-06-14T06:38:51;21.30;52.80
20915;DHT22;10617;52.032;5.298;2023-06-14T06:42:53;21.40;53.00
20915;DHT22;10617;52.032;5.298;2023-06-14T06:46:56;21.50;53.10
20915;DHT22;10617;52.032;5.298;2023-06-14T06:50:58;21.60;53.60
20915;DHT22;10617;52.032;5.298;2023-06-14T06:55:00;21.70;53.60
20915;DHT22;10617;52.032;5.298;2023-06-14T06:59:02;21.90;53.50
20915;DHT22;10617;52.032;5.298;2023-06-14T07:03:04;22.00;53.60
20915;DHT22;10617;52.032;5.298;2023-06-14T07:07:06;22.00;54.10
20915;DHT22;10617;52.032;5.298;2023-06-14T07:11:08;22.20;54.10
20915;DHT22;10617;52.032;5.298;2023-06-14T07:15:09;22.30;53.90
20915;DHT22;10617;52.032;5.298;2023-06-14T07:19:11;22.40;53.90
20915;DHT22;10617;52.032;5.298;2023-06-14T07:23:13;22.50;53.90
20915;DHT22;10617;52.032;5.298;2023-06-14T07:27:15;22.60;53.90
20915;DHT22;10617;52.032;5.298;2023-06-14T07:31:16;22.70;54.00
20915;DHT22;10617;52.032;5.298;2023-06-14T07:35:20;22.80;54.10
20915;DHT22;10617;52.032;5.298;2023-06-14T07:39:22;22.80;54.00
20915;DHT22;10617;52.032;5.298;2023-06-14T07:43:23;23.00;54.40
20915;DHT22;10617;52.032;5.298;2023-06-14T07:47:25;23.00;54.30
20915;DHT22;10617;52.032;5.298;2023-06-14T07:51:27;23.20;54.30
20915;DHT22;10617;52.032;5.298;2023-06-14T07:55:29;23.30;55.10
20915;DHT22;10617;52.032;5.298;2023-06-14T07:59:37;23.40;54.30
20915;DHT22;10617;52.032;5.298;2023-06-14T08:03:38;23.40;54.00
20915;DHT22;10617;52.032;5.298;2023-06-14T08:07:40;23.40;53.90
20915;DHT22;10617;52.032;5.298;2023-06-14T08:11:42;23.40;53.80
20915;DHT22;10617;52.032;5.298;2023-06-14T08:15:44;23.40;53.90
20915;DHT22;10617;52.032;5.298;2023-06-14T08:19:45;23.50;53.90
20915;DHT22;10617;52.032;5.298;2023-06-14T08:23:47;23.50;54.10
20915;DHT22;10617;52.032;5.298;2023-06-14T08:27:49;23.60;54.10
20915;DHT22;10617;52.032;5.298;2023-06-14T08:31:51;23.70;54.20
20915;DHT22;10617;52.032;5.298;2023-06-14T08:35:53;23.80;54.20
20915;DHT22;10617;52.032;5.298;2023-06-14T08:39:54;23.80;54.10
20915;DHT22;10617;52.032;5.298;2023-06-14T08:43:57;23.90;54.10
20915;DHT22;10617;52.032;5.298;2023-06-14T08:48:00;24.00;54.20
20915;DHT22;10617;52.032;5.298;2023-06-14T08:52:03;24.00;54.10
20915;DHT22;10617;52.032;5.298;2023-06-14T08:56:06;24.10;54.00
20915;DHT22;10617;52.032;5.298;2023-06-14T09:00:09;24.10;53.60
20915;DHT22;10617;52.032;5.298;2023-06-14T09:04:15;24.20;53.90
20915;DHT22;10617;52.032;5.298;2023-06-14T09:08:17;24.20;53.70
20915;DHT22;10617;52.032;5.298;2023-06-14T09:12:20;24.30;53.70
20915;DHT22;10617;52.032;5.298;2023-06-14T09:16:22;24.40;53.90
20915;DHT22;10617;52.032;5.298;2023-06-14T09:20:24;24.50;53.60
20915;DHT22;10617;52.032;5.298;2023-06-14T09:24:25;24.60;53.90
20915;DHT22;10617;52.032;5.298;2023-06-14T09:28:28;24.60;53.50
20915;DHT22;10617;52.032;5.298;2023-06-14T09:32:29;24.60;53.30
20915;DHT22;10617;52.032;5.298;2023-06-14T09:36:32;24.60;53.40
20915;DHT22;10617;52.032;5.298;2023-06-14T09:40:34;24.60;53.20
20915;DHT22;10617;52.032;5.298;2023-06-14T09:44:37;24.60;53.00
20915;DHT22;10617;52.032;5.298;2023-06-14T09:48:38;24.70;53.30
20915;DHT22;10617;52.032;5.298;2023-06-14T09:52:44;24.70;53.30
20915;DHT22;10617;52.032;5.298;2023-06-14T09:56:46;24.80;53.20
20915;DHT22;10617;52.032;5.298;2023-06-14T10:00:48;24.80;53.00
20915;DHT22;10617;52.032;5.298;2023-06-14T10:09:08;24.90;53.00
20915;DHT22;10617;52.032;5.298;2023-06-14T10:13:10;24.90;52.80
20915;DHT22;10617;52.032;5.298;2023-06-14T10:17:16;24.90;52.50
20915;DHT22;10617;52.032;5.298;2023-06-14T10:21:21;24.90;52.30
20915;DHT22;10617;52.032;5.298;2023-06-14T10:25:31;24.90;52.20
20915;DHT22;10617;52.032;5.298;2023-06-14T10:29:33;24.90;52.00
20915;DHT22;10617;52.032;5.298;2023-06-14T10:33:35;25.00;52.40
20915;DHT22;10617;52.032;5.298;2023-06-14T10:37:37;25.00;52.20
20915;DHT22;10617;52.032;5.298;2023-06-14T10:41:39;25.10;52.40
20915;DHT22;10617;52.032;5.298;2023-06-14T10:46:10;25.10;52.10
20915;DHT22;10617;52.032;5.298;2023-06-14T10:50:10;25.10;52.20
20915;DHT22;10617;52.032;5.298;2023-06-14T10:54:13;25.20;52.30
20915;DHT22;10617;52.032;5.298;2023-06-14T10:58:15;25.20;52.10
20915;DHT22;10617;52.032;5.298;2023-06-14T11:02:27;25.20;52.10
20915;DHT22;10617;52.032;5.298;2023-06-14T11:06:45;25.30;52.20
20915;DHT22;10617;52.032;5.298;2023-06-14T11:10:47;25.30;52.00
20915;DHT22;10617;52.032;5.298;2023-06-14T11:14:49;25.30;52.10
20915;DHT22;10617;52.032;5.298;2023-06-14T11:18:51;25.30;51.90
20915;DHT22;10617;52.032;5.298;2023-06-14T11:22:53;25.40;52.10
20915;DHT22;10617;52.032;5.298;2023-06-14T11:26:55;25.40;52.00
20915;DHT22;10617;52.032;5.298;2023-06-14T11:31:01;25.50;52.30
20915;DHT22;10617;52.032;5.298;2023-06-14T11:35:03;25.50;52.20
20915;DHT22;10617;52.032;5.298;2023-06-14T11:39:06;25.50;52.00
20915;DHT22;10617;52.032;5.298;2023-06-14T11:43:11;25.40;51.80
20915;DHT22;10617;52.032;5.298;2023-06-14T11:47:13;25.50;52.00
20915;DHT22;10617;52.032;5.298;2023-06-14T11:51:15;25.50;51.80
20915;DHT22;10617;52.032;5.298;2023-06-14T11:55:17;25.60;52.00
20915;DHT22;10617;52.032;5.298;2023-06-14T11:59:20;25.60;51.90
20915;DHT22;10617;52.032;5.298;2023-06-14T12:03:25;25.60;51.90
20915;DHT22;10617;52.032;5.298;2023-06-14T12:07:27;25.60;51.90
20915;DHT22;10617;52.032;5.298;2023-06-14T12:11:34;25.60;51.60
20915;DHT22;10617;52.032;5.298;2023-06-14T12:15:36;25.60;52.10
20915;DHT22;10617;52.032;5.298;2023-06-14T12:19:44;25.70;51.60
20915;DHT22;10617;52.032;5.298;2023-06-14T12:23:47;25.60;51.60
20915;DHT22;10617;52.032;5.298;2023-06-14T12:27:49;25.70;51.40
20915;DHT22;10617;52.032;5.298;2023-06-14T12:31:51;25.70;51.50
20915;DHT22;10617;52.032;5.298;2023-06-14T12:35:54;25.70;51.60
20915;DHT22;10617;52.032;5.298;2023-06-14T12:39:57;25.80;51.50
20915;DHT22;10617;52.032;5.298;2023-06-14T12:43:59;25.80;51.20
20915;DHT22;10617;52.032;5.298;2023-06-14T12:48:02;25.80;51.50
20915;DHT22;10617;52.032;5.298;2023-06-14T12:52:04;25.90;51.50
20915;DHT22;10617;52.032;5.298;2023-06-14T12:56:06;25.90;51.10
20915;DHT22;10617;52.032;5.298;2023-06-14T13:00:08;25.90;50.90
20915;DHT22;10617;52.032;5.298;2023-06-14T13:04:10;25.90;51.00
20915;DHT22;10617;52.032;5.298;2023-06-14T13:08:12;25.90;51.10
20915;DHT22;10617;52.032;5.298;2023-06-14T13:12:13;26.00;50.70
20915;DHT22;10617;52.032;5.298;2023-06-14T13:16:15;26.00;50.60
20915;DHT22;10617;52.032;5.298;2023-06-14T13:20:17;26.00;50.90
20915;DHT22;10617;52.032;5.298;2023-06-14T13:24:21;26.10;50.90
20915;DHT22;10617;52.032;5.298;2023-06-14T13:28:22;26.10;50.70
20915;DHT22;10617;52.032;5.298;2023-06-14T13:32:24;26.00;50.50
20915;DHT22;10617;52.032;5.298;2023-06-14T13:36:26;26.00;50.60
20915;DHT22;10617;52.032;5.298;2023-06-14T13:40:28;26.00;50.60
20915;DHT22;10617;52.032;5.298;2023-06-14T13:44:30;26.00;50.70
20915;DHT22;10617;52.032;5.298;2023-06-14T13:48:31;26.00;51.00
20915;DHT22;10617;52.032;5.298;2023-06-14T13:52:33;26.00;51.10
20915;DHT22;10617;52.032;5.298;2023-06-14T13:56:36;26.10;51.10
20915;DHT22;10617;52.032;5.298;2023-06-14T14:00:37;26.10;51.10
20915;DHT22;10617;52.032;5.298;2023-06-14T14:04:41;26.10;51.10
20915;DHT22;10617;52.032;5.298;2023-06-14T14:08:43;26.20;51.00
20915;DHT22;10617;52.032;5.298;2023-06-14T14:12:45;26.20;51.00
20915;DHT22;10617;52.032;5.298;2023-06-14T14:16:50;26.20;50.70
20915;DHT22;10617;52.032;5.298;2023-06-14T14:20:56;26.20;50.70
20915;DHT22;10617;52.032;5.298;2023-06-14T14:24:57;26.30;50.90
20915;DHT22;10617;52.032;5.298;2023-06-14T14:28:59;26.30;51.00
20915;DHT22;10617;52.032;5.298;2023-06-14T14:33:03;26.30;51.00
20915;DHT22;10617;52.032;5.298;2023-06-14T14:37:04;26.30;51.00
20915;DHT22;10617;52.032;5.298;2023-06-14T14:41:06;26.40;51.10
20915;DHT22;10617;52.032;5.298;2023-06-14T14:45:08;26.40;51.00
20915;DHT22;10617;52.032;5.298;2023-06-14T14:49:10;26.50;51.10
20915;DHT22;10617;52.032;5.298;2023-06-14T14:53:11;26.60;50.90
20915;DHT22;10617;52.032;5.298;2023-06-14T14:57:13;26.60;50.70
20915;DHT22;10617;52.032;5.298;2023-06-14T15:01:15;26.70;50.70
20915;DHT22;10617;52.032;5.298;2023-06-14T15:05:17;26.70;50.70
20915;DHT22;10617;52.032;5.298;2023-06-14T15:09:19;26.70;50.70
20915;DHT22;10617;52.032;5.298;2023-06-14T15:13:21;26.70;50.30
20915;DHT22;10617;52.032;5.298;2023-06-14T15:17:24;26.70;50.60
20915;DHT22;10617;52.032;5.298;2023-06-14T15:21:26;26.80;50.30
20915;DHT22;10617;52.032;5.298;2023-06-14T15:25:28;26.80;50.50
20915;DHT22;10617;52.032;5.298;2023-06-14T15:29:30;26.80;50.20
20915;DHT22;10617;52.032;5.298;2023-06-14T15:33:31;26.80;50.30
20915;DHT22;10617;52.032;5.298;2023-06-14T15:37:33;26.80;50.30
20915;DHT22;10617;52.032;5.298;2023-06-14T15:41:35;27.00;50.30
20915;DHT22;10617;52.032;5.298;2023-06-14T15:45:36;27.10;50.40
20915;DHT22;10617;52.032;5.298;2023-06-14T15:49:38;27.10;50.50
20915;DHT22;10617;52.032;5.298;2023-06-14T15:53:41;27.20;50.30
20915;DHT22;10617;52.032;5.298;2023-06-14T15:57:42;27.30;50.10
20915;DHT22;10617;52.032;5.298;2023-06-14T16:01:44;27.40;50.00
20915;DHT22;10617;52.032;5.298;2023-06-14T16:05:46;27.50;50.00
20915;DHT22;10617;52.032;5.298;2023-06-14T16:09:48;27.90;50.30
20915;DHT22;10617;52.032;5.298;2023-06-14T16:13:49;28.20;50.10
20915;DHT22;10617;52.032;5.298;2023-06-14T16:17:51;28.30;50.30
20915;DHT22;10617;52.032;5.298;2023-06-14T16:21:53;28.40;50.00
20915;DHT22;10617;52.032;5.298;2023-06-14T16:25:54;28.50;50.00
20915;DHT22;10617;52.032;5.298;2023-06-14T16:29:56;28.60;50.10
20915;DHT22;10617;52.032;5.298;2023-06-14T16:33:58;28.80;50.60
20915;DHT22;10617;52.032;5.298;2023-06-14T16:37:59;29.10;51.40
20915;DHT22;10617;52.032;5.298;2023-06-14T16:42:01;29.20;52.20
20915;DHT22;10617;52.032;5.298;2023-06-14T16:46:03;29.50;53.30
20915;DHT22;10617;52.032;5.298;2023-06-14T16:50:05;29.60;54.20
20915;DHT22;10617;52.032;5.298;2023-06-14T16:54:06;29.70;55.20
20915;DHT22;10617;52.032;5.298;2023-06-14T16:58:08;29.70;54.90
20915;DHT22;10617;52.032;5.298;2023-06-14T17:02:10;29.70;55.20
20915;DHT22;10617;52.032;5.298;2023-06-14T17:06:11;29.60;55.10
20915;DHT22;10617;52.032;5.298;2023-06-14T17:10:13;29.40;54.60
20915;DHT22;10617;52.032;5.298;2023-06-14T17:14:15;29.10;54.10
20915;DHT22;10617;52.032;5.298;2023-06-14T17:18:17;28.80;53.40
20915;DHT22;10617;52.032;5.298;2023-06-14T17:22:19;28.60;52.50
20915;DHT22;10617;52.032;5.298;2023-06-14T17:26:20;28.40;52.20
20915;DHT22;10617;52.032;5.298;2023-06-14T17:30:22;28.20;51.70
20915;DHT22;10617;52.032;5.298;2023-06-14T17:34:24;28.00;51.10
20915;DHT22;10617;52.032;5.298;2023-06-14T17:38:25;27.80;50.70
20915;DHT22;10617;52.032;5.298;2023-06-14T17:42:28;27.70;50.40
20915;DHT22;10617;52.032;5.298;2023-06-14T17:46:30;27.60;50.20
20915;DHT22;10617;52.032;5.298;2023-06-14T17:50:32;27.50;50.10
20915;DHT22;10617;52.032;5.298;2023-06-14T17:54:35;27.40;49.80
20915;DHT22;10617;52.032;5.298;2023-06-14T17:58:37;27.30;49.70
20915;DHT22;10617;52.032;5.298;2023-06-14T18:02:38;27.20;49.40
20915;DHT22;10617;52.032;5.298;2023-06-14T18:06:40;27.10;49.10
20915;DHT22;10617;52.032;5.298;2023-06-14T18:10:42;27.10;49.20
20915;DHT22;10617;52.032;5.298;2023-06-14T18:14:44;27.00;49.00
20915;DHT22;10617;52.032;5.298;2023-06-14T18:18:45;26.90;49.00
20915;DHT22;10617;52.032;5.298;2023-06-14T18:22:47;26.80;48.70
20915;DHT22;10617;52.032;5.298;2023-06-14T18:26:50;26.80;48.80
20915;DHT22;10617;52.032;5.298;2023-06-14T18:30:52;26.80;48.70
20915;DHT22;10617;52.032;5.298;2023-06-14T18:34:54;26.70;48.60
20915;DHT22;10617;52.032;5.298;2023-06-14T18:38:55;26.60;48.50
20915;DHT22;10617;52.032;5.298;2023-06-14T18:42:57;26.50;48.50
20915;DHT22;10617;52.032;5.298;2023-06-14T18:46:59;26.40;48.40
20915;DHT22;10617;52.032;5.298;2023-06-14T18:51:00;26.40;48.50
20915;DHT22;10617;52.032;5.298;2023-06-14T18:55:02;26.30;48.50
20915;DHT22;10617;52.032;5.298;2023-06-14T18:59:06;26.20;48.50
20915;DHT22;10617;52.032;5.298;2023-06-14T19:03:07;26.10;48.50
20915;DHT22;10617;52.032;5.298;2023-06-14T19:07:09;26.00;48.50
20915;DHT22;10617;52.032;5.298;2023-06-14T19:11:11;25.90;48.50
20915;DHT22;10617;52.032;5.298;2023-06-14T19:15:13;25.90;48.50
20915;DHT22;10617;52.032;5.298;2023-06-14T19:19:14;25.80;48.50
20915;DHT22;10617;52.032;5.298;2023-06-14T19:23:17;25.70;48.60
20915;DHT22;10617;52.032;5.298;2023-06-14T19:27:18;25.70;48.60
20915;DHT22;10617;52.032;5.298;2023-06-14T19:31:20;25.60;48.60
20915;DHT22;10617;52.032;5.298;2023-06-14T19:35:22;25.60;48.60
20915;DHT22;10617;52.032;5.298;2023-06-14T19:39:24;25.50;48.60
20915;DHT22;10617;52.032;5.298;2023-06-14T19:43:25;25.40;48.60
20915;DHT22;10617;52.032;5.298;2023-06-14T19:47:27;25.30;48.60
20915;DHT22;10617;52.032;5.298;2023-06-14T19:51:29;25.20;48.80
20915;DHT22;10617;52.032;5.298;2023-06-14T19:55:31;25.00;48.70
20915;DHT22;10617;52.032;5.298;2023-06-14T19:59:33;24.90;48.90
20915;DHT22;10617;52.032;5.298;2023-06-14T20:03:34;24.70;48.80
20915;DHT22;10617;52.032;5.298;2023-06-14T20:07:37;24.50;48.80
20915;DHT22;10617;52.032;5.298;2023-06-14T20:11:39;24.40;49.00
20915;DHT22;10617;52.032;5.298;2023-06-14T20:15:40;24.20;49.00
20915;DHT22;10617;52.032;5.298;2023-06-14T20:19:43;24.10;49.10
20915;DHT22;10617;52.032;5.298;2023-06-14T20:23:45;24.00;49.20
20915;DHT22;10617;52.032;5.298;2023-06-14T20:27:46;23.80;49.20
20915;DHT22;10617;52.032;5.298;2023-06-14T20:31:49;23.70;49.40
20915;DHT22;10617;52.032;5.298;2023-06-14T20:35:51;23.60;49.40
20915;DHT22;10617;52.032;5.298;2023-06-14T20:39:53;23.50;49.50
20915;DHT22;10617;52.032;5.298;2023-06-14T20:43:55;23.40;49.50
20915;DHT22;10617;52.032;5.298;2023-06-14T20:47:59;23.20;49.40
20915;DHT22;10617;52.032;5.298;2023-06-14T21:02:08;22.90;49.60
20915;DHT22;10617;52.032;5.298;2023-06-14T21:06:17;22.70;49.60
20915;DHT22;10617;52.032;5.298;2023-06-14T21:10:19;22.60;49.80
20915;DHT22;10617;52.032;5.298;2023-06-14T21:14:21;22.50;49.90
20915;DHT22;10617;52.032;5.298;2023-06-14T21:18:22;22.50;50.00
20915;DHT22;10617;52.032;5.298;2023-06-14T21:22:24;22.40;50.00
20915;DHT22;10617;52.032;5.298;2023-06-14T21:26:26;22.40;50.20
20915;DHT22;10617;52.032;5.298;2023-06-14T21:30:32;22.30;50.20
20915;DHT22;10617;52.032;5.298;2023-06-14T21:34:36;22.20;50.20
20915;DHT22;10617;52.032;5.298;2023-06-14T21:38:42;22.10;50.10
20915;DHT22;10617;52.032;5.298;2023-06-14T21:42:44;22.00;50.10
20915;DHT22;10617;52.032;5.298;2023-06-14T21:46:45;21.90;50.10
20915;DHT22;10617;52.032;5.298;2023-06-14T21:50:48;21.80;50.10
20915;DHT22;10617;52.032;5.298;2023-06-14T21:54:53;21.70;50.20
20915;DHT22;10617;52.032;5.298;2023-06-14T21:58:55;21.60;50.20
20915;DHT22;10617;52.032;5.298;2023-06-14T22:02:57;21.60;50.30
20915;DHT22;10617;52.032;5.298;2023-06-14T22:06:58;21.50;50.40
20915;DHT22;10617;52.032;5.298;2023-06-14T22:11:00;21.50;50.60
20915;DHT22;10617;52.032;5.298;2023-06-14T22:15:11;21.40;50.60
20915;DHT22;10617;52.032;5.298;2023-06-14T22:19:14;21.40;50.80
20915;DHT22;10617;52.032;5.298;2023-06-14T22:23:16;21.30;50.80
20915;DHT22;10617;52.032;5.298;2023-06-14T22:27:18;21.30;51.00
20915;DHT22;10617;52.032;5.298;2023-06-14T22:31:22;21.30;51.20
20915;DHT22;10617;52.032;5.298;2023-06-14T22:35:24;21.20;51.30
20915;DHT22;10617;52.032;5.298;2023-06-14T22:39:25;21.20;51.50
20915;DHT22;10617;52.032;5.298;2023-06-14T22:43:27;21.20;51.50
20915;DHT22;10617;52.032;5.298;2023-06-14T22:47:29;21.20;51.30
20915;DHT22;10617;52.032;5.298;2023-06-14T22:51:31;21.10;51.50
20915;DHT22;10617;52.032;5.298;2023-06-14T22:55:33;21.00;51.40
20915;DHT22;10617;52.032;5.298;2023-06-14T22:59:35;21.00;51.40
20915;DHT22;10617;52.032;5.298;2023-06-14T23:03:37;20.90;51.50
20915;DHT22;10617;52.032;5.298;2023-06-14T23:07:38;20.80;51.50
20915;DHT22;10617;52.032;5.298;2023-06-14T23:11:41;20.70;51.60
20915;DHT22;10617;52.032;5.298;2023-06-14T23:15:43;20.70;51.80
20915;DHT22;10617;52.032;5.298;2023-06-14T23:19:45;20.60;52.60
20915;DHT22;10617;52.032;5.298;2023-06-14T23:23:47;20.60;52.10
20915;DHT22;10617;52.032;5.298;2023-06-14T23:27:49;20.60;52.20
20915;DHT22;10617;52.032;5.298;2023-06-14T23:31:51;20.60;52.30
20915;DHT22;10617;52.032;5.298;2023-06-14T23:35:54;20.60;52.10
20915;DHT22;10617;52.032;5.298;2023-06-14T23:39:56;20.50;52.00
20915;DHT22;10617;52.032;5.298;2023-06-14T23:43:58;20.40;52.10
20915;DHT22;10617;52.032;5.298;2023-06-14T23:48:02;20.50;52.20
20915;DHT22;10617;52.032;5.298;2023-06-14T23:52:04;20.50;52.20
20915;DHT22;10617;52.032;5.298;2023-06-14T23:56:09;20.50;52.30
